createdAt,value
2018-12-24T00:00:37.922Z,101529.00
2018-12-24T00:03:07.392Z,101534.00
2018-12-24T00:05:36.903Z,101531.00
2018-12-24T00:08:06.345Z,101532.00
2018-12-24T00:10:35.809Z,101538.00
2018-12-24T00:13:05.341Z,101525.00
2018-12-24T00:15:34.780Z,101523.00
2018-12-24T00:18:04.234Z,101535.00
2018-12-24T00:20:33.701Z,101543.00
2018-12-24T00:23:03.181Z,101546.00
2018-12-24T00:25:32.610Z,101557.00
2018-12-24T00:28:02.070Z,101556.00
2018-12-24T00:30:31.578Z,101558.00
2018-12-24T00:33:01.019Z,101566.00
2018-12-24T00:35:30.496Z,101577.00
2018-12-24T00:37:59.936Z,101586.00
2018-12-24T00:40:29.402Z,101591.00
2018-12-24T00:42:58.870Z,101583.00
2018-12-24T00:45:29.941Z,101600.00
2018-12-24T00:47:59.394Z,101609.00
2018-12-24T00:50:28.837Z,101619.00
2018-12-24T00:52:58.316Z,101629.00
2018-12-24T00:55:27.848Z,101634.00
2018-12-24T00:57:57.285Z,101647.00
2018-12-24T01:00:26.931Z,101650.00
2018-12-24T01:02:58.166Z,101650.00
2018-12-24T01:05:27.697Z,101660.00
2018-12-24T01:07:57.212Z,101658.00
2018-12-24T01:10:26.770Z,101666.00
2018-12-24T01:12:56.240Z,101679.00
2018-12-24T01:15:25.687Z,101693.00
2018-12-24T01:17:55.154Z,101698.00
2018-12-24T01:20:24.590Z,101703.00
2018-12-24T01:22:54.055Z,101712.00
2018-12-24T01:25:23.578Z,101715.00
2018-12-24T01:27:53.041Z,101717.00
2018-12-24T01:30:22.506Z,101720.00
2018-12-24T01:32:51.944Z,101731.00
2018-12-24T01:35:21.383Z,101739.00
2018-12-24T01:37:50.860Z,101759.00
2018-12-24T01:40:20.318Z,101754.00
2018-12-24T01:42:49.772Z,101755.00
2018-12-24T01:45:19.266Z,101755.00
2018-12-24T01:47:48.705Z,101758.00
2018-12-24T01:50:18.144Z,101766.00
2018-12-24T01:52:47.599Z,101767.00
2018-12-24T01:55:17.143Z,101766.00
2018-12-24T01:57:46.593Z,101772.00
2018-12-24T02:00:16.031Z,101774.00
2018-12-24T02:02:45.482Z,101785.00
2018-12-24T02:05:14.939Z,101791.00
2018-12-24T02:07:44.388Z,101798.00
2018-12-24T02:10:13.845Z,101804.00
2018-12-24T02:12:43.284Z,101808.00
2018-12-24T02:15:12.738Z,101810.00
2018-12-24T02:17:42.234Z,101814.00
2018-12-24T02:20:11.667Z,101805.00
2018-12-24T02:22:41.096Z,101820.00
2018-12-24T02:25:10.530Z,101822.00
2018-12-24T02:27:39.935Z,101826.00
2018-12-24T02:30:09.440Z,101829.00
2018-12-24T02:32:38.913Z,101833.00
2018-12-24T02:35:08.372Z,101836.00
2018-12-24T02:37:37.923Z,101828.00
2018-12-24T02:40:07.346Z,101834.00
2018-12-24T02:42:36.784Z,101836.00
2018-12-24T02:45:06.351Z,101845.00
2018-12-24T02:47:35.809Z,101850.00
2018-12-24T02:50:05.466Z,101852.00
2018-12-24T02:52:34.908Z,101853.00
2018-12-24T02:55:04.448Z,101862.00
2018-12-24T02:57:33.901Z,101849.00
2018-12-24T03:00:03.434Z,101850.00
2018-12-24T03:02:32.927Z,101857.00
2018-12-24T03:05:02.393Z,101857.00
2018-12-24T03:07:34.258Z,101859.00
2018-12-24T03:10:05.061Z,101859.00
2018-12-24T03:12:34.534Z,101864.00
2018-12-24T03:15:04.829Z,101885.00
2018-12-24T03:17:34.263Z,101893.00
2018-12-24T03:20:04.235Z,101888.00
2018-12-24T03:22:33.684Z,101903.00
2018-12-24T03:25:03.124Z,101907.00
2018-12-24T03:27:32.616Z,101911.00
2018-12-24T03:30:02.041Z,101918.00
2018-12-24T03:32:31.484Z,101925.00
2018-12-24T03:35:00.979Z,101930.00
2018-12-24T03:37:30.428Z,101928.00
2018-12-24T03:39:59.856Z,101937.00
2018-12-24T03:42:29.304Z,101942.00
2018-12-24T03:44:58.891Z,101950.00
2018-12-24T03:47:28.467Z,101952.00
2018-12-24T03:49:57.927Z,101960.00
2018-12-24T03:52:27.455Z,101960.00
2018-12-24T03:54:56.903Z,101968.00
2018-12-24T03:57:26.455Z,101972.00
2018-12-24T03:59:55.958Z,101977.00
2018-12-24T04:02:25.414Z,101972.00
2018-12-24T04:04:54.911Z,101972.00
2018-12-24T04:07:24.568Z,101988.00
2018-12-24T04:09:54.132Z,101989.00
2018-12-24T04:12:23.677Z,101983.00
2018-12-24T04:14:53.258Z,101993.00
2018-12-24T04:17:22.709Z,102002.00
2018-12-24T04:19:52.257Z,102004.00
2018-12-24T04:22:21.742Z,101997.00
2018-12-24T04:24:51.252Z,102015.00
2018-12-24T04:27:20.784Z,102013.00
2018-12-24T04:29:50.288Z,102023.00
2018-12-24T04:32:19.763Z,102025.00
2018-12-24T04:34:49.227Z,102038.00
2018-12-24T04:37:18.742Z,102043.00
2018-12-24T04:39:48.201Z,102045.00
2018-12-24T04:42:17.637Z,102045.00
2018-12-24T04:44:47.162Z,102054.00
2018-12-24T04:47:16.616Z,102065.00
2018-12-24T04:49:46.101Z,102071.00
2018-12-24T04:52:15.843Z,102075.00
2018-12-24T04:54:45.350Z,102076.00
2018-12-24T04:57:14.832Z,102090.00
2018-12-24T04:59:44.402Z,102095.00
2018-12-24T05:02:13.828Z,102100.00
2018-12-24T05:04:43.384Z,102107.00
2018-12-24T05:07:12.834Z,102112.00
2018-12-24T05:09:42.271Z,102121.00
2018-12-24T05:12:11.864Z,102132.00
2018-12-24T05:14:41.283Z,102142.00
2018-12-24T05:17:10.798Z,102135.00
2018-12-24T05:19:40.273Z,102132.00
2018-12-24T05:22:09.705Z,102147.00
2018-12-24T05:24:39.163Z,102160.00
2018-12-24T05:27:08.621Z,102162.00
2018-12-24T05:29:38.057Z,102168.00
2018-12-24T05:32:07.503Z,102175.00
2018-12-24T05:34:36.951Z,102184.00
2018-12-24T05:37:06.424Z,102191.00
2018-12-24T05:39:35.835Z,102195.00
2018-12-24T05:42:05.335Z,102203.00
2018-12-24T05:44:34.817Z,102209.00
2018-12-24T05:47:04.339Z,102212.00
2018-12-24T05:49:33.797Z,102218.00
2018-12-24T05:52:03.301Z,102220.00
2018-12-24T05:54:32.741Z,102238.00
2018-12-24T05:57:02.168Z,102241.00
2018-12-24T05:59:31.648Z,102246.00
2018-12-24T06:02:01.102Z,102252.00
2018-12-24T06:04:30.559Z,102271.00
2018-12-24T06:07:00.032Z,102269.00
2018-12-24T06:09:29.480Z,102282.00
2018-12-24T06:11:58.919Z,102282.00
2018-12-24T06:14:28.393Z,102292.00
2018-12-24T06:16:57.837Z,102299.00
2018-12-24T06:19:27.268Z,102306.00
2018-12-24T06:21:56.759Z,102307.00
2018-12-24T06:24:26.218Z,102319.00
2018-12-24T06:26:55.680Z,102323.00
2018-12-24T06:29:25.155Z,102329.00
2018-12-24T06:31:54.593Z,102330.00
2018-12-24T06:34:24.040Z,102336.00
2018-12-24T06:36:53.643Z,102346.00
2018-12-24T06:39:23.090Z,102341.00
2018-12-24T06:41:52.517Z,102342.00
2018-12-24T06:44:21.995Z,102344.00
2018-12-24T06:46:51.425Z,102355.00
2018-12-24T06:49:20.869Z,102352.00
2018-12-24T06:51:50.367Z,102361.00
2018-12-24T06:54:19.943Z,102373.00
2018-12-24T06:56:49.365Z,102371.00
2018-12-24T06:59:18.978Z,102377.00
2018-12-24T07:01:48.432Z,102368.00
2018-12-24T07:04:18.044Z,102381.00
2018-12-24T07:06:47.506Z,102378.00
2018-12-24T07:09:17.028Z,102388.00
2018-12-24T07:11:46.490Z,102389.00
2018-12-24T07:14:15.999Z,102396.00
2018-12-24T07:16:45.682Z,102395.00
2018-12-24T07:19:15.198Z,102396.00
2018-12-24T07:21:44.700Z,102407.00
2018-12-24T07:24:14.197Z,102406.00
2018-12-24T07:26:43.794Z,102428.00
2018-12-24T07:29:13.249Z,102428.00
2018-12-24T07:31:42.846Z,102443.00
2018-12-24T07:34:12.302Z,102443.00
2018-12-24T07:36:41.813Z,102456.00
2018-12-24T07:39:11.293Z,102452.00
2018-12-24T07:41:40.841Z,102460.00
2018-12-24T07:44:10.257Z,102467.00
2018-12-24T07:46:40.933Z,102471.00
2018-12-24T07:49:10.587Z,102466.00
2018-12-24T07:51:40.085Z,102476.00
2018-12-24T07:54:09.549Z,102463.00
2018-12-24T07:56:39.075Z,102470.00
2018-12-24T07:59:08.522Z,102481.00
2018-12-24T08:01:38.036Z,102489.00
2018-12-24T08:04:07.614Z,102491.00
2018-12-24T08:06:37.072Z,102490.00
2018-12-24T08:09:08.369Z,102489.00
2018-12-24T08:11:37.829Z,102490.00
2018-12-24T08:14:07.272Z,102500.00
2018-12-24T08:16:36.778Z,102512.00
2018-12-24T08:19:06.294Z,102507.00
2018-12-24T08:21:35.801Z,102520.00
2018-12-24T08:24:05.321Z,102532.00
2018-12-24T08:26:34.783Z,102538.00
2018-12-24T08:29:04.241Z,102548.00
2018-12-24T08:31:33.734Z,102546.00
2018-12-24T08:34:03.166Z,102551.00
2018-12-24T08:36:32.619Z,102562.00
2018-12-24T08:39:02.107Z,102566.00
2018-12-24T08:41:31.574Z,102575.00
2018-12-24T08:44:01.023Z,102579.00
2018-12-24T08:46:30.499Z,102581.00
2018-12-24T08:48:59.964Z,102579.00
2018-12-24T08:51:29.412Z,102587.00
2018-12-24T08:53:58.968Z,102599.00
2018-12-24T08:56:29.304Z,102595.00
2018-12-24T08:58:58.900Z,102608.00
2018-12-24T09:01:28.354Z,102618.00
2018-12-24T09:03:57.758Z,102618.00
2018-12-24T09:06:27.230Z,102638.00
2018-12-24T09:08:56.670Z,102638.00
2018-12-24T09:11:26.106Z,102635.00
2018-12-24T09:13:55.598Z,102657.00
2018-12-24T09:16:25.081Z,102660.00
2018-12-24T09:18:54.503Z,102663.00
2018-12-24T09:21:23.960Z,102665.00
2018-12-24T09:23:53.410Z,102671.00
2018-12-24T09:26:22.862Z,102681.00
2018-12-24T09:28:52.375Z,102687.00
2018-12-24T09:31:21.831Z,102691.00
2018-12-24T09:33:51.281Z,102694.00
2018-12-24T09:36:20.762Z,102689.00
2018-12-24T09:38:50.219Z,102697.00
2018-12-24T09:41:19.751Z,102703.00
2018-12-24T09:43:49.229Z,102708.00
2018-12-24T09:46:18.679Z,102715.00
2018-12-24T09:48:48.114Z,102721.00
2018-12-24T09:51:17.589Z,102721.00
2018-12-24T09:53:47.039Z,102722.00
2018-12-24T09:56:16.494Z,102736.00
2018-12-24T09:58:46.104Z,102736.00
2018-12-24T10:01:15.563Z,102731.00
2018-12-24T10:03:45.186Z,102733.00
2018-12-24T10:06:14.638Z,102738.00
2018-12-24T10:08:44.169Z,102739.00
2018-12-24T10:11:13.676Z,102741.00
2018-12-24T10:13:43.212Z,102734.00
2018-12-24T10:16:12.664Z,102735.00
2018-12-24T10:18:42.144Z,102743.00
2018-12-24T10:21:11.597Z,102749.00
2018-12-24T10:23:41.114Z,102759.00
2018-12-24T10:26:10.582Z,102757.00
2018-12-24T10:28:40.144Z,102746.00
2018-12-24T10:31:09.571Z,102748.00
2018-12-24T10:33:39.044Z,102756.00
2018-12-24T10:36:08.531Z,102761.00
2018-12-24T10:38:37.997Z,102765.00
2018-12-24T10:41:07.565Z,102759.00
2018-12-24T10:43:37.072Z,102756.00
2018-12-24T10:46:06.462Z,102762.00
2018-12-24T10:48:35.985Z,102767.00
2018-12-24T10:51:05.420Z,102758.00
2018-12-24T10:53:34.984Z,102759.00
2018-12-24T10:56:04.483Z,102769.00
2018-12-24T10:58:34.117Z,102776.00
2018-12-24T11:01:03.538Z,102779.00
2018-12-24T11:03:33.195Z,102777.00
2018-12-24T11:06:02.679Z,102771.00
2018-12-24T11:08:32.250Z,102768.00
2018-12-24T11:11:01.792Z,102772.00
2018-12-24T11:13:31.279Z,102765.00
2018-12-24T11:16:00.814Z,102772.00
2018-12-24T11:18:30.267Z,102783.00
2018-12-24T11:20:59.822Z,102771.00
2018-12-24T11:23:29.269Z,102769.00
2018-12-24T11:25:58.730Z,102764.00
2018-12-24T11:28:28.211Z,102779.00
2018-12-24T11:30:57.682Z,102789.00
2018-12-24T11:33:27.127Z,102777.00
2018-12-24T11:35:56.623Z,102779.00
2018-12-24T11:38:26.153Z,102780.00
2018-12-24T11:40:55.608Z,102780.00
2018-12-24T11:43:25.101Z,102779.00
2018-12-24T11:45:56.172Z,102780.00
2018-12-24T11:48:25.598Z,102787.00
2018-12-24T11:50:55.064Z,102798.00
2018-12-24T11:53:24.578Z,102792.00
2018-12-24T11:55:54.026Z,102788.00
2018-12-24T11:58:23.514Z,102789.00
2018-12-24T12:00:53.198Z,102789.00
2018-12-24T12:03:22.641Z,102788.00
2018-12-24T12:05:53.945Z,102796.00
2018-12-24T12:08:23.412Z,102793.00
2018-12-24T12:10:53.051Z,102805.00
2018-12-24T12:13:22.550Z,102807.00
2018-12-24T12:15:52.033Z,102811.00
2018-12-24T12:18:21.581Z,102814.00
2018-12-24T12:20:52.611Z,102816.00
2018-12-24T12:23:22.365Z,102818.00
2018-12-24T12:25:51.830Z,102812.00
2018-12-24T12:28:21.383Z,102826.00
2018-12-24T12:30:50.819Z,102829.00
2018-12-24T12:33:20.452Z,102830.00
2018-12-24T12:35:49.931Z,102830.00
2018-12-24T12:38:19.395Z,102840.00
2018-12-24T12:40:48.882Z,102841.00
2018-12-24T12:43:18.327Z,102843.00
2018-12-24T12:45:51.397Z,102847.00
2018-12-24T12:48:21.277Z,102844.00
2018-12-24T12:50:50.245Z,102848.00
2018-12-24T12:53:19.695Z,102848.00
2018-12-24T12:55:49.143Z,102855.00
2018-12-24T12:58:18.606Z,102854.00
2018-12-24T13:00:48.072Z,102847.00
2018-12-24T13:03:17.559Z,102853.00
2018-12-24T13:05:47.056Z,102852.00
2018-12-24T13:08:16.490Z,102857.00
2018-12-24T13:10:45.945Z,102859.00
2018-12-24T13:13:15.433Z,102860.00
2018-12-24T13:15:44.914Z,102864.00
2018-12-24T13:18:14.387Z,102866.00
2018-12-24T13:20:43.931Z,102869.00
2018-12-24T13:23:13.404Z,102873.00
2018-12-24T13:25:42.915Z,102876.00
2018-12-24T13:28:12.374Z,102875.00
2018-12-24T13:30:41.821Z,102877.00
2018-12-24T13:33:11.355Z,102880.00
2018-12-24T13:35:40.808Z,102884.00
2018-12-24T13:38:10.217Z,102884.00
2018-12-24T13:40:39.629Z,102897.00
2018-12-24T13:43:09.061Z,102898.00
2018-12-24T13:45:38.552Z,102907.00
2018-12-24T13:48:08.054Z,102905.00
2018-12-24T13:50:37.478Z,102914.00
2018-12-24T13:53:06.964Z,102915.00
2018-12-24T13:55:36.439Z,102919.00
2018-12-24T13:58:05.908Z,102916.00
2018-12-24T14:00:35.375Z,102924.00
2018-12-24T14:03:04.824Z,102927.00
2018-12-24T14:05:34.358Z,102929.00
2018-12-24T14:08:03.866Z,102933.00
2018-12-24T14:10:33.287Z,102924.00
2018-12-24T14:13:02.750Z,102933.00
2018-12-24T14:15:32.243Z,102933.00
2018-12-24T14:18:01.695Z,102937.00
2018-12-24T14:20:32.807Z,102945.00
2018-12-24T14:23:02.293Z,102949.00
2018-12-24T14:25:31.768Z,102959.00
2018-12-24T14:28:02.791Z,102965.00
2018-12-24T14:30:32.294Z,102966.00
2018-12-24T14:33:01.745Z,102972.00
2018-12-24T14:35:31.252Z,102976.00
2018-12-24T14:38:00.733Z,102969.00
2018-12-24T14:40:30.193Z,102961.00
2018-12-24T14:42:59.823Z,102971.00
2018-12-24T14:45:29.293Z,102982.00
2018-12-24T14:48:00.533Z,102987.00
2018-12-24T14:50:30.030Z,102989.00
2018-12-24T14:52:59.721Z,102999.00
2018-12-24T14:55:31.911Z,103000.00
2018-12-24T14:58:01.383Z,102997.00
2018-12-24T15:00:30.833Z,103001.00
2018-12-24T15:03:03.263Z,103004.00
2018-12-24T15:05:32.743Z,103012.00
2018-12-24T15:08:05.188Z,103018.00
2018-12-24T15:10:36.246Z,103025.00
2018-12-24T15:13:05.734Z,103035.00
2018-12-24T15:15:35.233Z,103033.00
2018-12-24T15:18:04.861Z,103030.00
2018-12-24T15:20:34.511Z,103033.00
2018-12-24T15:23:03.977Z,103034.00
2018-12-24T15:25:33.459Z,103029.00
2018-12-24T15:28:02.933Z,103032.00
2018-12-24T15:30:33.912Z,103018.00
2018-12-24T15:33:03.396Z,103010.00
2018-12-24T15:35:35.593Z,103009.00
2018-12-24T15:38:06.501Z,103016.00
2018-12-24T15:40:35.947Z,103017.00
2018-12-24T15:43:05.419Z,103016.00
2018-12-24T15:45:34.941Z,103024.00
2018-12-24T15:48:04.462Z,103029.00
2018-12-24T15:50:33.972Z,103038.00
2018-12-24T15:53:03.453Z,103040.00
2018-12-24T15:55:32.964Z,103036.00
2018-12-24T15:58:04.031Z,103036.00
2018-12-24T16:00:33.538Z,103026.00
2018-12-24T16:03:02.986Z,103022.00
2018-12-24T16:05:32.440Z,103018.00
2018-12-24T16:08:04.930Z,103029.00
2018-12-24T16:10:34.397Z,103020.00
2018-12-24T16:13:05.371Z,103034.00
2018-12-24T16:15:34.825Z,103033.00
2018-12-24T16:18:07.007Z,103035.00
2018-12-24T16:20:36.505Z,103049.00
2018-12-24T16:23:05.928Z,103060.00
2018-12-24T16:25:35.363Z,103058.00
2018-12-24T16:28:04.852Z,103050.00
2018-12-24T16:30:34.312Z,103070.00
2018-12-24T16:33:06.789Z,103065.00
2018-12-24T16:35:36.212Z,103057.00
2018-12-24T16:38:05.661Z,103056.00
2018-12-24T16:40:35.226Z,103053.00
2018-12-24T16:43:04.680Z,103058.00
2018-12-24T16:45:34.130Z,103058.00
2018-12-24T16:48:03.716Z,103057.00
2018-12-24T16:50:33.187Z,103067.00
2018-12-24T16:53:02.793Z,103084.00
2018-12-24T16:55:32.251Z,103094.00
2018-12-24T16:58:01.712Z,103083.00
2018-12-24T17:00:31.145Z,103087.00
2018-12-24T17:03:00.617Z,103088.00
2018-12-24T17:05:30.090Z,103093.00
2018-12-24T17:07:59.536Z,103111.00
2018-12-24T17:10:29.021Z,103111.00
2018-12-24T17:12:58.489Z,103117.00
2018-12-24T17:15:27.993Z,103113.00
2018-12-24T17:17:57.478Z,103114.00
2018-12-24T17:20:27.006Z,103109.00
2018-12-24T17:22:56.449Z,103114.00
2018-12-24T17:25:25.923Z,103111.00
2018-12-24T17:27:55.412Z,103117.00
2018-12-24T17:30:24.963Z,103120.00
2018-12-24T17:32:54.396Z,103137.00
2018-12-24T17:35:23.900Z,103136.00
2018-12-24T17:37:53.366Z,103133.00
2018-12-24T17:40:24.374Z,103129.00
2018-12-24T17:42:53.844Z,103135.00
2018-12-24T17:45:23.292Z,103137.00
2018-12-24T17:47:52.758Z,103141.00
2018-12-24T17:50:22.340Z,103154.00
2018-12-24T17:52:51.800Z,103147.00
2018-12-24T17:55:21.252Z,103147.00
2018-12-24T17:57:50.719Z,103140.00
2018-12-24T18:00:20.184Z,103154.00
2018-12-24T18:02:49.637Z,103158.00
2018-12-24T18:05:19.198Z,103152.00
2018-12-24T18:07:48.722Z,103166.00
2018-12-24T18:10:18.287Z,103167.00
2018-12-24T18:12:47.733Z,103163.00
2018-12-24T18:15:17.240Z,103166.00
2018-12-24T18:17:46.727Z,103172.00
2018-12-24T18:20:16.243Z,103177.00
2018-12-24T18:22:45.674Z,103191.00
2018-12-24T18:25:15.150Z,103180.00
2018-12-24T18:27:44.602Z,103185.00
2018-12-24T18:30:14.246Z,103194.00
2018-12-24T18:32:43.690Z,103202.00
2018-12-24T18:35:13.174Z,103198.00
2018-12-24T18:37:42.634Z,103191.00
2018-12-24T18:40:12.170Z,103199.00
2018-12-24T18:42:41.628Z,103201.00
2018-12-24T18:45:11.107Z,103221.00
2018-12-24T18:47:40.557Z,103218.00
2018-12-24T18:50:10.003Z,103222.00
2018-12-24T18:52:39.541Z,103217.00
2018-12-24T18:55:08.976Z,103214.00
2018-12-24T18:57:38.520Z,103212.00
2018-12-24T19:00:10.778Z,103226.00
2018-12-24T19:02:40.235Z,103222.00
2018-12-24T19:05:10.158Z,103216.00
2018-12-24T19:07:39.640Z,103226.00
2018-12-24T19:10:09.482Z,103224.00
2018-12-24T19:12:39.006Z,103234.00
2018-12-24T19:15:08.598Z,103232.00
2018-12-24T19:17:41.622Z,103239.00
2018-12-24T19:20:09.847Z,103253.00
2018-12-24T19:22:41.035Z,103241.00
2018-12-24T19:25:10.524Z,103249.00
2018-12-24T19:27:40.044Z,103254.00
2018-12-24T19:30:11.691Z,103267.00
2018-12-24T19:32:41.204Z,103266.00
2018-12-24T19:35:10.654Z,103263.00
2018-12-24T19:37:40.141Z,103260.00
2018-12-24T19:40:09.672Z,103254.00
2018-12-24T19:42:39.121Z,103251.00
2018-12-24T19:45:08.608Z,103257.00
2018-12-24T19:47:38.129Z,103255.00
2018-12-24T19:50:07.742Z,103247.00
2018-12-24T19:52:37.231Z,103250.00
2018-12-24T19:55:06.749Z,103250.00
2018-12-24T19:57:36.244Z,103257.00
2018-12-24T20:00:08.421Z,103264.00
2018-12-24T20:02:37.848Z,103260.00
2018-12-24T20:05:07.396Z,103263.00
2018-12-24T20:07:36.854Z,103266.00
2018-12-24T20:10:08.094Z,103267.00
2018-12-24T20:12:37.599Z,103264.00
2018-12-24T20:15:07.222Z,103260.00
2018-12-24T20:17:36.668Z,103254.00
2018-12-24T20:20:06.872Z,103255.00
2018-12-24T20:22:36.330Z,103258.00
2018-12-24T20:25:05.930Z,103264.00
2018-12-24T20:27:35.401Z,103276.00
2018-12-24T20:30:05.987Z,103274.00
2018-12-24T20:32:35.499Z,103274.00
2018-12-24T20:35:05.507Z,103275.00
2018-12-24T20:37:35.069Z,103284.00
2018-12-24T20:40:04.670Z,103290.00
2018-12-24T20:42:34.212Z,103278.00
2018-12-24T20:45:03.778Z,103279.00
2018-12-24T20:47:33.259Z,103275.00
2018-12-24T20:50:02.723Z,103269.00
2018-12-24T20:52:32.292Z,103279.00
2018-12-24T20:55:01.767Z,103282.00
2018-12-24T20:57:31.211Z,103277.00
2018-12-24T21:00:00.768Z,103274.00
2018-12-24T21:02:30.253Z,103278.00
2018-12-24T21:04:59.736Z,103284.00
2018-12-24T21:07:29.235Z,103273.00
2018-12-24T21:09:58.722Z,103279.00
2018-12-24T21:12:28.264Z,103273.00
2018-12-24T21:14:57.770Z,103271.00
2018-12-24T21:17:27.274Z,103275.00
2018-12-24T21:19:56.722Z,103263.00
2018-12-24T21:22:26.234Z,103258.00
2018-12-24T21:24:55.699Z,103259.00
2018-12-24T21:27:25.181Z,103254.00
2018-12-24T21:29:54.656Z,103246.00
2018-12-24T21:32:24.195Z,103249.00
2018-12-24T21:34:53.706Z,103251.00
2018-12-24T21:37:23.159Z,103259.00
2018-12-24T21:39:52.651Z,103245.00
2018-12-24T21:42:23.113Z,103243.00
2018-12-24T21:44:52.608Z,103244.00
2018-12-24T21:47:22.073Z,103250.00
2018-12-24T21:49:51.532Z,103245.00
2018-12-24T21:52:21.030Z,103242.00
2018-12-24T21:54:50.493Z,103232.00
2018-12-24T21:57:19.944Z,103233.00
2018-12-24T21:59:49.474Z,103241.00
2018-12-24T22:02:18.972Z,103242.00
2018-12-24T22:04:48.416Z,103240.00
2018-12-24T22:07:17.966Z,103241.00
2018-12-24T22:09:47.459Z,103240.00
2018-12-24T22:12:16.896Z,103238.00
2018-12-24T22:14:46.367Z,103241.00
2018-12-24T22:17:15.807Z,103238.00
2018-12-24T22:19:45.302Z,103240.00
2018-12-24T22:22:14.794Z,103248.00
2018-12-24T22:24:44.276Z,103248.00
2018-12-24T22:27:13.887Z,103241.00
2018-12-24T22:29:43.327Z,103255.00
2018-12-24T22:32:12.784Z,103259.00
2018-12-24T22:34:42.429Z,103261.00
2018-12-24T22:37:11.901Z,103263.00
2018-12-24T22:39:41.403Z,103269.00
2018-12-24T22:42:10.906Z,103258.00
2018-12-24T22:44:40.397Z,103260.00
2018-12-24T22:47:09.834Z,103249.00
2018-12-24T22:49:39.509Z,103251.00
2018-12-24T22:52:08.992Z,103248.00
2018-12-24T22:54:38.393Z,103241.00
2018-12-24T22:57:07.834Z,103241.00
2018-12-24T22:59:37.281Z,103244.00
2018-12-24T23:02:06.797Z,103247.00
2018-12-24T23:04:36.303Z,103245.00
2018-12-24T23:07:05.855Z,103242.00
2018-12-24T23:09:35.302Z,103243.00
2018-12-24T23:12:04.831Z,103242.00
2018-12-24T23:14:34.362Z,103230.00
2018-12-24T23:17:03.820Z,103237.00
2018-12-24T23:19:33.274Z,103236.00
2018-12-24T23:22:02.720Z,103236.00
2018-12-24T23:24:32.235Z,103240.00
2018-12-24T23:27:01.670Z,103236.00
2018-12-24T23:29:31.140Z,103233.00
2018-12-24T23:32:00.636Z,103220.00
2018-12-24T23:34:30.201Z,103227.00
2018-12-24T23:36:59.741Z,103240.00
2018-12-24T23:39:29.204Z,103233.00
2018-12-24T23:41:58.673Z,103235.00
2018-12-24T23:44:28.164Z,103244.00
2018-12-24T23:46:57.678Z,103235.00
2018-12-24T23:49:27.134Z,103228.00
2018-12-24T23:51:56.601Z,103223.00
2018-12-24T23:54:26.046Z,103227.00
2018-12-24T23:56:55.508Z,103216.00
2018-12-24T23:59:25.003Z,103215.00
